Amarillo, TX (79101)

3:11 AM CDT en Octubre 01, 2014 (GMT -0500)
Oliver-Eakle | Change Station
CLOSE
Current Station
Estación meteorológica personal
Location: Amarillo, TX
Altura: 3678 ft
Estaciones meteorológicas cercanas

Alt 3678 ft 35.19 °N, 101.84 °W | Updated 12 seconds ago

Despejado
Despejado
63.2 ° F
Sensación térmica 63.2 ° F
N
0.8
Viento Variable Viento desde Oeste
Gusts 1.2 mph

Hoy
Alta -- | Baja -- ° F
--% Posibilidad de precipitaciones
Ayer
Alta -- | Baja -- ° F
Precip. -- pul
7:42 AM 7:31 PM
Creciente, 45% visible
Presión 29.64 pul
Visibilidad 10.0 Millas
Nubes Despejado
Punto de rocío 42 ° F
Humedad 45%
Precipitaciones 0.00 pul
Espesor de la nieve No disponible.
UV 0 de una escala de 12
Polen 9.20 de una escala de 12
Calidad del aire No disponible.
Flu Activity No disponible.
METAR KAMA 010753Z AUTO 24009KT 10SM CLR 16/07 A2979 RMK AO2 SLP037 T01560067

More Conditions Fewer Conditions

Presión 29.64 pul
Visibilidad 10.0 Millas
Nubes Despejado
Punto de rocío 42 ° F
Humedad 45%
Precipitaciones 0.00 pul
Espesor de la nieve No disponible.
UV 0 de una escala de 12
Polen 9.20 de una escala de 12
Calidad del aire No disponible.
Flu Activity No disponible.
METAR KAMA 010753Z AUTO 24009KT 10SM CLR 16/07 A2979 RMK AO2 SLP037 T01560067

More Conditions Fewer Conditions

10-Day Weather Forecast

Almanac

Astronomía

Oct. 01, 2014 Salida Puesta
Hora real 7:42 AM CDT 7:31 PM CDT
Crepúsculo civil 7:16 AM CDT 7:56 PM CDT
Crepúsculo náutico 6:47 AM CDT 8:25 PM CDT
Crepúsculo astronómico 6:17 AM CDT 8:55 PM CDT
Luna 2:35 PM CDT 12:14 AM CDT
Horas de luz 12h 39m
Horas de luz
11h 48m
Tomorrow will be 2m 11s shorter.
Creciente, 45% of the Moon is Illuminated
Hoy
Creciente
Oct 1
Cuarto creciente
Oct 8
Luna llena
Oct 15
Cuarto menguante
Oct 23
Nueva

Extremos de hoy

Máximos del estado Bajos del estado

Community

WunderPhotos

Upload Photos

1,757,902 ¡fotos cargadas!

Nearby

Grosos de nieve

Estación Profundido Altura
No tenemos constancia de nieve nueva.

Actividad de terremotos

Ciudad Distance Mag. Tiempo y dato
No hay informes recientes de la actividad sísmica.
Magnitud mínima muestra es 2,5.

Temperaturas de aguas costeras

Lugar Temperatura
Sin partes meteorológicos de las estaciones

Estaciones meteorológicas cercanas